地図

経路データ

SID SEASON NUMBER BASIN SUBBASIN NAME ISO_TIME NATURE LAT LON WMO_WIND WMO_PRES WMO_AGENCY TRACK_TYPE DIST2LAND LANDFALL IFLAG USA_AGENCY USA_ATCF_ID USA_LAT USA_LON USA_RECORD USA_STATUS USA_WIND USA_PRES USA_SSHS USA_R34_NE USA_R34_SE USA_R34_SW USA_R34_NW USA_R50_NE USA_R50_SE USA_R50_SW USA_R50_NW USA_R64_NE USA_R64_SE USA_R64_SW USA_R64_NW USA_POCI USA_ROCI USA_RMW USA_EYE TOKYO_LAT TOKYO_LON TOKYO_GRADE TOKYO_WIND TOKYO_PRES TOKYO_R50_DIR TOKYO_R50_LONG TOKYO_R50_SHORT TOKYO_R30_DIR TOKYO_R30_LONG TOKYO_R30_SHORT TOKYO_LAND CMA_LAT CMA_LON CMA_CAT CMA_WIND CMA_PRES HKO_LAT HKO_LON HKO_CAT HKO_WIND HKO_PRES NEWDELHI_LAT NEWDELHI_LON NEWDELHI_GRADE NEWDELHI_WIND NEWDELHI_PRES NEWDELHI_CI NEWDELHI_DP NEWDELHI_POCI REUNION_LAT REUNION_LON REUNION_TYPE REUNION_WIND REUNION_PRES REUNION_TNUM REUNION_CI REUNION_RMW REUNION_R34_NE REUNION_R34_SE REUNION_R34_SW REUNION_R34_NW REUNION_R50_NE REUNION_R50_SE REUNION_R50_SW REUNION_R50_NW REUNION_R64_NE REUNION_R64_SE REUNION_R64_SW REUNION_R64_NW BOM_LAT BOM_LON BOM_TYPE BOM_WIND BOM_PRES BOM_TNUM BOM_CI BOM_RMW BOM_R34_NE BOM_R34_SE BOM_R34_SW BOM_R34_NW BOM_R50_NE BOM_R50_SE BOM_R50_SW BOM_R50_NW BOM_R64_NE BOM_R64_SE BOM_R64_SW BOM_R64_NW BOM_ROCI BOM_POCI BOM_EYE BOM_POS_METHOD BOM_PRES_METHOD NADI_LAT NADI_LON NADI_CAT NADI_WIND NADI_PRES WELLINGTON_LAT WELLINGTON_LON WELLINGTON_WIND WELLINGTON_PRES DS824_LAT DS824_LON DS824_STAGE DS824_WIND DS824_PRES TD9636_LAT TD9636_LON TD9636_STAGE TD9636_WIND TD9636_PRES TD9635_LAT TD9635_LON TD9635_WIND TD9635_PRES TD9635_ROCI NEUMANN_LAT NEUMANN_LON NEUMANN_CLASS NEUMANN_WIND NEUMANN_PRES MLC_LAT MLC_LON MLC_CLASS MLC_WIND MLC_PRES USA_GUST BOM_GUST BOM_GUST_PER REUNION_GUST REUNION_GUST_PER USA_SEAHGT USA_SEARAD_NE USA_SEARAD_SE USA_SEARAD_SW USA_SEARAD_NW STORM_SPEED STORM_DIR
1950290N12082 1950 94 NI BB NOT_NAMED 1950-10-16 18:00:00 TS 11.8000 82.1000 main 221 206 O________O____ jtwc_io IO141950 11.8000 82.1000 -1 11.8000 82.1000 TC 2 306
1950290N12082 1950 94 NI BB NOT_NAMED 1950-10-16 21:00:00 TS 11.8700 82.0025 main 206 193 P________P____ IO141950 11.8700 82.0025 -1 11.8700 82.0025 TC 3 316
1950290N12082 1950 94 NI BB NOT_NAMED 1950-10-17 00:00:00 TS 12.0000 81.9000 main 193 177 O________O____ jtwc_io IO141950 12.0000 81.9000 -1 12.0000 81.9000 TC 25 4 330
1950290N12082 1950 94 NI BB NOT_NAMED 1950-10-17 03:00:00 TS 12.2244 81.7934 main 177 162 P________PO___ IO141950 12.2275 81.7925 -1 12.2275 81.7925 TC 25 12.2000 81.8000 1 5 338
1950290N12082 1950 94 NI BB NOT_NAMED 1950-10-17 06:00:00 TS 12.4981 81.6988 main 162 151 O________OP___ jtwc_io IO141950 12.5000 81.7000 -1 12.5000 81.7000 TC 25 12.4907 81.6940 1 6 343
1950290N12082 1950 94 NI BB NOT_NAMED 1950-10-17 09:00:00 TS 12.7568 81.6310 main 151 144 P________PP___ IO141950 12.7500 81.6425 -1 12.7500 81.6425 TC 25 12.7751 81.6003 1 5 347
1950290N12082 1950 94 NI BB NOT_NAMED 1950-10-17 12:00:00 TS 13.0156 81.5771 main 144 129 O________OP___ jtwc_io IO141950 13.0000 81.6000 -1 13.0000 81.6000 TC 25 13.0469 81.5314 1 5 348
1950290N12082 1950 94 NI BB NOT_NAMED 1950-10-17 15:00:00 TS 13.2667 81.5184 main 129 129 P________PO___ IO141950 13.2500 81.5276 -1 13.2500 81.5276 TC 25 13.3000 81.5000 1 5 353
1950290N12082 1950 94 NI BB NOT_NAMED 1950-10-17 18:00:00 TS 13.5104 81.5052 main 129 129 O________OP___ jtwc_io IO141950 13.5000 81.5000 -1 13.5000 81.5000 TC 25 13.5312 81.5156 1 5 6
1950290N12082 1950 94 NI BB NOT_NAMED 1950-10-17 21:00:00 TS 13.7500 81.5717 main 140 140 P________PP___ IO141950 13.7500 81.5700 -1 13.7500 81.5700 TC 25 13.7499 81.5751 1 5 21
1950290N12082 1950 94 NI BB NOT_NAMED 1950-10-18 00:00:00 TS 13.9896 81.6907 main 152 152 O________OP___ jtwc_io IO141950 14.0000 81.7000 -1 14.0000 81.7000 TC 25 13.9687 81.6720 1 5 27
1950290N12082 1950 94 NI BB NOT_NAMED 1950-10-18 03:00:00 TS 14.2333 81.8283 main 168 168 P________PO___ IO141950 14.2500 81.8425 -1 14.2500 81.8425 TC 25 14.2000 81.8000 1 6 29
1950290N12082 1950 94 NI BB NOT_NAMED 1950-10-18 06:00:00 TS 14.4923 81.9807 main 178 170 O________OP___ jtwc_io IO141950 14.5000 82.0000 -1 14.5000 82.0000 TC 25 14.4769 81.9421 1 6 29
1950290N12082 1950 94 NI BB NOT_NAMED 1950-10-18 09:00:00 TS 14.7550 82.1325 main 162 159 P________PP___ IO141950 14.7500 82.1426 -1 14.7500 82.1426 TC 25 14.7650 82.1123 1 6 31
1950290N12082 1950 94 NI BB NOT_NAMED 1950-10-18 12:00:00 TS 15.0152 82.3005 main 159 138 O________OP___ jtwc_io IO141950 15.0000 82.3000 -1 15.0000 82.3000 TC 25 15.0456 82.3014 1 6 34
1950290N12082 1950 94 NI BB NOT_NAMED 1950-10-18 15:00:00 TS 15.2767 82.4950 main 138 124 P________PO___ IO141950 15.2650 82.4925 -1 15.2650 82.4925 TC 25 15.3000 82.5000 1 6 37
1950290N12082 1950 94 NI BB NOT_NAMED 1950-10-18 18:00:00 TS 15.4888 82.6763 main 129 124 O________OP___ jtwc_io IO141950 15.5000 82.7000 -1 15.5000 82.7000 TC 25 15.4665 82.6290 1 5 44
1950290N12082 1950 94 NI BB NOT_NAMED 1950-10-18 21:00:00 TS 15.6321 82.8483 main 124 116 P________PP___ IO141950 15.6424 82.8852 -1 15.6424 82.8852 TC 25 15.6114 82.7745 1 5 51
1950290N12082 1950 94 NI BB NOT_NAMED 1950-10-19 00:00:00 TS 15.7919 83.0609 main 123 115 O________OP___ jtwc_io IO141950 15.8000 83.1000 -1 15.8000 83.1000 TC 25 15.7756 82.9826 1 6 48
1950290N12082 1950 94 NI BB NOT_NAMED 1950-10-19 03:00:00 TS 16.0414 83.3169 main 126 120 P________PO___ IO141950 16.0621 83.3254 -1 16.0621 83.3254 TC 25 16.0000 83.3000 1 9 48
1950290N12082 1950 94 NI BB NOT_NAMED 1950-10-19 06:00:00 TS 16.3815 83.7334 main 143 140 O________OP___ jtwc_io IO141950 16.4000 83.7000 -1 16.4000 83.7000 TC 25 16.3444 83.8001 1 13 54
1950290N12082 1950 94 NI BB NOT_NAMED 1950-10-19 09:00:00 TS 16.7732 84.3726 main 154 154 P________PP___ IO141950 16.7854 84.3548 -1 16.7854 84.3548 TC 25 16.7489 84.4084 1 15 58
1950290N12082 1950 94 NI BB NOT_NAMED 1950-10-19 12:00:00 TS 17.1929 85.0876 main 162 161 O________OP___ jtwc_io IO141950 17.2000 85.1000 -1 17.2000 85.1000 TC 25 17.1788 85.0627 1 15 57
1950290N12082 1950 94 NI BB NOT_NAMED 1950-10-19 15:00:00 TS 17.6049 85.7201 main 176 176 P________PO___ IO141950 17.6073 85.7302 -1 17.6073 85.7302 TC 25 17.6000 85.7000 1 14 55
1950290N12082 1950 94 NI BB NOT_NAMED 1950-10-19 18:00:00 TS 17.9962 86.2925 main 200 189 O________OP___ jtwc_io IO141950 18.0000 86.3000 -1 18.0000 86.3000 TC 25 17.9886 86.2774 1 13 54
1950290N12082 1950 94 NI BB NOT_NAMED 1950-10-19 21:00:00 TS 18.3683 86.8366 main 183 172 P________PP___ IO141950 18.3724 86.8451 -1 18.3724 86.8451 TC 25 18.3600 86.8197 1 12 54
1950290N12082 1950 94 NI BB NOT_NAMED 1950-10-20 00:00:00 TS 18.7004 87.3007 main 173 168 O________OP___ jtwc_io IO141950 18.7000 87.3000 -1 18.7000 87.3000 TC 25 18.7013 87.3022 1 10 52
1950290N12082 1950 94 NI BB NOT_NAMED 1950-10-20 03:00:00 TS 18.9816 87.6635 main 176 169 P________PO___ IO141950 18.9723 87.6452 -1 18.9723 87.6452 TC 25 19.0000 87.7000 1 8 49
1950290N12082 1950 94 NI BB NOT_NAMED 1950-10-20 06:00:00 TS 19.2087 87.9278 main 175 175 O________OP___ jtwc_io IO141950 19.2000 87.9000 -1 19.2000 87.9000 TC 25 19.2260 87.9835 1 6 47
1950290N12082 1950 94 NI BB NOT_NAMED 1950-10-20 09:00:00 TS 19.4046 88.1382 main 177 177 P________PP___ IO141950 19.3999 88.1152 -1 19.3999 88.1152 TC 25 19.4139 88.1842 1 5 43
1950290N12082 1950 94 NI BB NOT_NAMED 1950-10-20 12:00:00 TS 19.5983 88.3142 main 183 177 O________OP___ jtwc_io IO141950 19.6000 88.3000 -1 19.6000 88.3000 TC 25 19.5950 88.3427 1 5 39
1950290N12082 1950 94 NI BB NOT_NAMED 1950-10-20 15:00:00 TS 19.8233 88.4951 main 186 169 P________PO___ IO141950 19.8350 88.4926 -1 19.8350 88.4926 TC 25 19.8000 88.5000 1 6 37
1950290N12082 1950 94 NI BB NOT_NAMED 1950-10-20 18:00:00 TS 20.0945 88.7112 main 169 134 O________OP___ jtwc_io IO141950 20.1000 88.7000 -1 20.1000 88.7000 TC 25 20.0835 88.7337 1 7 37
1950290N12082 1950 94 NI BB NOT_NAMED 1950-10-20 21:00:00 TS 20.3976 88.9573 main 134 101 P________PP___ IO141950 20.4000 88.9499 -1 20.4000 88.9499 TC 25 20.3926 88.9720 1 8 37
1950290N12082 1950 94 NI BB NOT_NAMED 1950-10-21 00:00:00 TS 20.7018 89.1998 main 101 73 O________OP___ jtwc_io IO141950 20.7000 89.2000 -1 20.7000 89.2000 TC 25 20.7054 89.1994 1 7 37
1950290N12082 1950 94 NI BB NOT_NAMED 1950-10-21 03:00:00 TS 20.9717 89.4150 main 73 59 P________PO___ IO141950 20.9575 89.4226 -1 20.9575 89.4226 TC 25 21.0000 89.4000 1 6 36
1950290N12082 1950 94 NI BB NOT_NAMED 1950-10-21 06:00:00 TS 21.2101 89.5874 main 59 44 O________OP___ jtwc_io IO141950 21.2000 89.6000 -1 21.2000 89.6000 TC 25 21.2302 89.5623 1 6 30
1950290N12082 1950 94 NI BB NOT_NAMED 1950-10-21 09:00:00 TS 21.4474 89.7086 main 44 11 P________PP___ IO141950 21.4500 89.7151 -1 21.4500 89.7151 TC 25 21.4423 89.6956 1 5 23
1950290N12082 1950 94 NI BB NOT_NAMED 1950-10-21 12:00:00 TS 21.6861 89.8020 main 11 0 O________OP___ jtwc_io IO141950 21.7000 89.8000 -1 21.7000 89.8000 TC 25 21.6583 89.8060 1 5 21
1950290N12082 1950 94 NI BB NOT_NAMED 1950-10-21 15:00:00 TS 21.9283 89.9050 main 0 0 P________PO___ IO141950 21.9425 89.9075 -1 21.9425 89.9075 TC 25 21.9000 89.9000 1 5 19
1950290N12082 1950 94 NI BB NOT_NAMED 1950-10-21 18:00:00 TS 22.1934 89.9934 main 0 0 O________OP___ jtwc_io IO141950 22.2000 90.0000 -1 22.2000 90.0000 TC 25 22.1835 89.9834 1 6 14
1950290N12082 1950 94 NI BB NOT_NAMED 1950-10-21 21:00:00 TS 22.4954 90.0598 main 0 0 P________PP___ IO141950 22.4900 90.0600 -1 22.4900 90.0600 TC 25 22.5026 90.0595 1 6 10
1950290N12082 1950 94 NI BB NOT_NAMED 1950-10-22 00:00:00 TS 22.8227 90.1154 main 0 0 O________OP___ jtwc_io IO141950 22.8000 90.1000 -1 22.8000 90.1000 TC 25 22.8454 90.1309 1 7 10
1950290N12082 1950 94 NI BB NOT_NAMED 1950-10-22 03:00:00 NR 23.2000 90.2000 main 0 __________O___ IO141950 -1 TC 23.2000 90.2000 1 8 12

IBTrACS Databaseについて

本データベースは、米国NOAAが公開する1842年以降の世界の熱帯低気圧のベストトラックデータアーカイブInternational Best Track Archive for Climate Stewardship (IBTrACS)を、ウェブで閲覧しやすい形式に変換したものです。

最終更新日:2021-10-25